Time;durP1;ratioP1;P1;durP2;ratioP2;P2;SDS_P1;SDS_P2;PMS_P1;PMS_P2;Temp;Humidity;BMP_temperature;BMP_pressure;BME280_temperature;BME280_humidity;BME280_pressure;Samples;Min_cycle;Max_cycle;Signal;HPM_P1;HPM_P2
2021/12/27 00:00:46;;;;;;;18.00;10.13;;;-1.70;99.90;;;;;;5031320;28;20045;-44
2021/12/27 00:03:12;;;;;;;16.83;9.27;;;-1.70;99.90;;;;;;5048547;28;20129;-45
2021/12/27 00:05:39;;;;;;;16.80;10.05;;;-1.70;99.90;;;;;;5051887;28;20250;-45
2021/12/27 00:08:05;;;;;;;18.55;9.93;;;-1.70;99.90;;;;;;5038270;28;20340;-45
2021/12/27 00:10:31;;;;;;;14.65;9.10;;;-1.70;99.90;;;;;;5063560;28;20049;-44
2021/12/27 00:12:58;;;;;;;17.48;9.90;;;-1.70;99.90;;;;;;5056634;28;20097;-44
2021/12/27 00:15:25;;;;;;;17.85;10.02;;;-1.70;99.90;;;;;;5058334;28;20042;-44
2021/12/27 00:17:51;;;;;;;16.35;9.32;;;-1.80;99.90;;;;;;5035017;28;20131;-44
2021/12/27 00:20:19;;;;;;;17.48;9.48;;;-1.70;99.90;;;;;;5057131;28;20147;-44
2021/12/27 00:22:46;;;;;;;18.75;10.35;;;-1.70;99.90;;;;;;5051253;28;20064;-44
2021/12/27 00:25:13;;;;;;;18.60;9.40;;;-1.80;99.90;;;;;;5051209;28;20110;-45
2021/12/27 00:27:39;;;;;;;15.52;10.20;;;-1.80;99.90;;;;;;5053164;28;20422;-44
2021/12/27 00:30:06;;;;;;;16.50;9.10;;;-1.80;99.90;;;;;;5052964;28;20050;-45
2021/12/27 00:32:33;;;;;;;;;;;-1.80;99.90;;;;;;5062760;28;20049;-45
2021/12/27 00:34:59;;;;;;;19.40;9.02;;;-1.90;99.90;;;;;;5092982;28;19970;-44
2021/12/27 00:37:25;;;;;;;17.60;9.00;;;-1.90;99.90;;;;;;5067486;28;20483;-45
2021/12/27 00:39:51;;;;;;;19.25;10.73;;;-1.90;99.90;;;;;;5061371;28;20110;-44
2021/12/27 00:42:17;;;;;;;15.05;9.52;;;-1.90;99.90;;;;;;5069376;28;20044;-44
2021/12/27 00:44:43;;;;;;;19.08;9.30;;;-1.90;99.90;;;;;;5063276;28;20040;-45
2021/12/27 00:47:10;;;;;;;17.27;9.95;;;-2.00;99.90;;;;;;5053167;28;20127;-45
2021/12/27 00:49:36;;;;;;;19.20;9.25;;;-2.00;99.90;;;;;;5068323;28;20372;-44
2021/12/27 00:52:02;;;;;;;17.73;9.10;;;-2.00;99.90;;;;;;5061496;28;20110;-44
2021/12/27 00:54:28;;;;;;;17.85;9.55;;;-2.10;99.90;;;;;;5052040;28;20056;-44
2021/12/27 00:56:54;;;;;;;18.73;9.85;;;-2.10;99.90;;;;;;5050902;28;20359;-44
2021/12/27 00:59:20;;;;;;;18.35;10.50;;;-2.20;99.90;;;;;;5062649;28;20036;-45
2021/12/27 01:01:46;;;;;;;18.35;10.18;;;-2.20;99.90;;;;;;5053775;28;20151;-44
2021/12/27 01:04:12;;;;;;;17.05;9.88;;;-2.20;99.90;;;;;;5052458;28;20033;-44
2021/12/27 01:06:39;;;;;;;18.25;9.88;;;-2.30;99.90;;;;;;5057463;28;20060;-45
2021/12/27 01:09:05;;;;;;;20.40;10.57;;;-2.30;99.90;;;;;;5052386;28;20037;-44
2021/12/27 01:11:45;;;;;;;16.23;9.63;;;-2.40;99.90;;;;;;5067105;28;20123;-45
2021/12/27 01:14:15;;;;;;;21.20;10.52;;;-2.40;99.90;;;;;;5051514;28;20083;-44
2021/12/27 01:16:43;;;;;;;17.73;10.70;;;-2.40;99.90;;;;;;5040291;28;20051;-44
2021/12/27 01:19:09;;;;;;;19.48;10.63;;;-2.50;99.90;;;;;;5058192;28;20120;-44
2021/12/27 01:21:35;;;;;;;16.75;9.63;;;-2.50;99.90;;;;;;5063718;28;20565;-43
2021/12/27 01:24:03;;;;;;;18.60;10.20;;;-2.40;99.90;;;;;;5033603;28;20125;-44
2021/12/27 01:26:30;;;;;;;;;;;-2.50;99.90;;;;;;5051541;28;20044;-44
2021/12/27 01:28:59;;;;;;;19.35;10.85;;;-2.40;99.90;;;;;;5050952;28;19971;-43
2021/12/27 01:31:28;;;;;;;19.63;11.75;;;-2.40;99.90;;;;;;5082813;28;20115;-44
2021/12/27 01:33:55;;;;;;;22.67;11.52;;;-2.30;99.90;;;;;;5056441;28;20033;-44
2021/12/27 01:36:21;;;;;;;20.70;12.30;;;-2.30;99.90;;;;;;5046801;28;20481;-44
2021/12/27 01:38:48;;;;;;;18.45;10.70;;;-2.30;99.90;;;;;;5055365;28;20090;-44
2021/12/27 01:41:16;;;;;;;23.08;11.90;;;-2.30;99.90;;;;;;5050212;28;20045;-44
2021/12/27 01:43:42;;;;;;;18.95;11.13;;;-2.30;99.90;;;;;;5049782;28;20123;-44
2021/12/27 01:46:12;;;;;;;19.58;10.98;;;-2.30;99.90;;;;;;5033281;28;20056;-45
2021/12/27 01:48:41;;;;;;;19.73;10.90;;;-2.20;99.90;;;;;;5050182;28;20048;-46
2021/12/27 01:51:13;;;;;;;18.08;10.48;;;-2.20;99.90;;;;;;5043212;28;20109;-45
2021/12/27 01:53:42;;;;;;;17.70;10.80;;;-2.20;99.90;;;;;;5064146;28;20093;-44
2021/12/27 01:56:11;;;;;;;22.42;12.00;;;-2.20;99.90;;;;;;5050236;28;20067;-44
2021/12/27 01:58:38;;;;;;;22.02;11.75;;;-2.20;99.90;;;;;;5055696;28;20067;-44
2021/12/27 02:01:12;;;;;;;20.95;10.93;;;-2.20;99.90;;;;;;5058111;28;20060;-45
2021/12/27 02:03:43;;;;;;;19.85;11.38;;;-2.20;99.90;;;;;;5051207;28;20110;-44
2021/12/27 02:06:11;;;;;;;;;;;-2.20;99.90;;;;;;5040242;28;20056;-44
2021/12/27 02:08:42;;;;;;;16.63;9.82;;;-2.20;99.90;;;;;;5055451;28;20370;-44
2021/12/27 02:11:12;;;;;;;20.92;11.35;;;-2.20;99.90;;;;;;5056674;28;20041;-44
2021/12/27 02:13:43;;;;;;;21.08;10.77;;;-2.20;99.90;;;;;;5054301;28;20106;-44
2021/12/27 02:16:17;;;;;;;18.52;11.13;;;-2.20;99.90;;;;;;5060979;28;20037;-45
2021/12/27 02:18:47;;;;;;;20.25;10.68;;;-2.10;99.90;;;;;;5035858;28;20618;-44
2021/12/27 02:21:14;;;;;;;23.92;11.77;;;-2.10;99.90;;;;;;5051640;28;20064;-45
2021/12/27 02:23:41;;;;;;;19.83;11.18;;;-2.10;99.90;;;;;;5052796;28;20056;-44
2021/12/27 02:26:10;;;;;;;19.13;10.98;;;-2.10;99.90;;;;;;5049611;28;20581;-45
2021/12/27 02:28:37;;;;;;;19.92;11.45;;;-2.10;99.90;;;;;;5066095;28;20045;-46
2021/12/27 02:31:03;;;;;;;22.30;11.60;;;-2.10;99.90;;;;;;5079989;28;20485;-44
2021/12/27 02:33:29;;;;;;;21.42;11.45;;;-2.10;99.90;;;;;;5060314;28;20045;-44
2021/12/27 02:35:57;;;;;;;21.52;12.15;;;-2.10;99.90;;;;;;5062819;28;20040;-44
2021/12/27 02:38:27;;;;;;;19.30;10.90;;;-2.10;99.90;;;;;;5068564;28;20040;-45
2021/12/27 02:40:55;;;;;;;21.63;12.15;;;-2.00;99.90;;;;;;5049591;28;20049;-44
2021/12/27 02:43:26;;;;;;;19.60;11.75;;;-2.00;99.90;;;;;;5082415;28;20519;-44
2021/12/27 02:46:04;;;;;;;20.73;11.00;;;-2.00;99.90;;;;;;5056899;28;20045;-45
2021/12/27 02:48:32;;;;;;;22.52;11.60;;;-2.00;99.90;;;;;;5050886;28;20136;-45
2021/12/27 02:50:59;;;;;;;22.15;11.73;;;-2.00;99.90;;;;;;5054147;28;20056;-44
2021/12/27 02:53:25;;;;;;;18.58;11.18;;;-2.00;99.90;;;;;;5042879;28;20045;-44
2021/12/27 02:55:55;;;;;;;20.23;12.10;;;-2.00;99.90;;;;;;5047341;28;20659;-45
2021/12/27 02:58:23;;;;;;;20.75;11.93;;;-1.90;99.90;;;;;;5067051;28;20046;-45
2021/12/27 03:00:55;;;;;;;22.20;11.00;;;-1.90;99.90;;;;;;5047961;28;20052;-45
2021/12/27 03:03:22;;;;;;;22.20;12.00;;;-1.90;99.90;;;;;;5096210;28;20418;-45
2021/12/27 03:05:49;;;;;;;22.52;13.02;;;-1.90;99.90;;;;;;5052213;28;20085;-45
2021/12/27 03:08:16;;;;;;;22.35;11.85;;;-1.90;99.90;;;;;;5051619;28;20052;-44
2021/12/27 03:10:46;;;;;;;23.77;12.25;;;-1.90;99.90;;;;;;5042069;28;20056;-45
2021/12/27 03:13:18;;;;;;;23.20;12.93;;;-1.90;99.90;;;;;;5051263;28;20491;-44
2021/12/27 03:15:55;;;;;;;22.95;12.77;;;-1.90;99.90;;;;;;5065079;28;20127;-45
2021/12/27 03:18:22;;;;;;;25.20;12.15;;;-1.90;99.90;;;;;;5054466;28;20052;-45
2021/12/27 03:20:48;;;;;;;21.97;12.20;;;-1.80;99.90;;;;;;5057389;28;20068;-45
2021/12/27 03:23:15;;;;;;;20.33;12.23;;;-1.80;99.90;;;;;;5062028;28;20045;-45
2021/12/27 03:25:41;;;;;;;21.17;11.90;;;-1.80;99.90;;;;;;5032069;28;20110;-45
2021/12/27 03:28:07;;;;;;;22.55;12.73;;;-1.80;99.90;;;;;;5049743;28;20539;-44
2021/12/27 03:30:34;;;;;;;20.97;12.53;;;-1.70;99.90;;;;;;5081862;28;20041;-45
2021/12/27 03:33:00;;;;;;;23.75;12.65;;;-1.70;99.90;;;;;;5048173;28;20654;-45
2021/12/27 03:35:29;;;;;;;22.90;12.32;;;-1.70;99.90;;;;;;5048079;28;20220;-45
2021/12/27 03:37:58;;;;;;;21.40;11.80;;;-1.70;99.90;;;;;;5055694;28;20041;-45
2021/12/27 03:40:26;;;;;;;20.63;11.70;;;-1.70;99.90;;;;;;5044837;28;20048;-45
2021/12/27 03:42:53;;;;;;;21.00;12.40;;;-1.60;99.90;;;;;;5044839;28;20063;-46
2021/12/27 03:45:26;;;;;;;22.77;12.18;;;-1.60;99.90;;;;;;5050823;28;20424;-45
2021/12/27 03:47:53;;;;;;;20.80;12.10;;;-1.60;99.90;;;;;;5031366;28;20041;-45
2021/12/27 03:50:19;;;;;;;23.00;12.90;;;-1.60;99.90;;;;;;5059811;28;20048;-45
2021/12/27 03:52:46;;;;;;;20.88;11.98;;;-1.60;99.90;;;;;;5048020;28;20045;-44
2021/12/27 03:55:13;;;;;;;20.55;11.07;;;-1.60;99.90;;;;;;5048242;28;20064;-45
2021/12/27 03:57:42;;;;;;;23.92;13.85;;;-1.50;99.90;;;;;;5046921;28;20047;-45
2021/12/27 04:02:49;;;;;;;22.38;12.40;;;-1.50;99.90;;;;;;5054455;28;20052;-45
2021/12/27 04:05:16;;;;;;;22.15;12.07;;;-1.50;99.90;;;;;;5098735;28;20047;-46
2021/12/27 04:07:46;;;;;;;22.17;12.13;;;-1.50;99.90;;;;;;5061920;28;20467;-45
2021/12/27 04:10:13;;;;;;;23.30;14.02;;;-1.50;99.90;;;;;;5072003;28;20495;-45
2021/12/27 04:12:39;;;;;;;23.60;13.27;;;-1.40;99.90;;;;;;5071397;28;20071;-45
2021/12/27 04:15:08;;;;;;;25.27;12.93;;;-1.40;99.90;;;;;;5051738;28;20033;-46
2021/12/27 04:17:35;;;;;;;23.08;12.85;;;-1.40;99.90;;;;;;5053695;28;20037;-45
2021/12/27 04:20:03;;;;;;;23.33;13.60;;;-1.40;99.90;;;;;;5065672;28;20132;-44
2021/12/27 04:22:33;;;;;;;22.05;13.50;;;-1.30;99.90;;;;;;5059683;28;20495;-45
2021/12/27 04:25:03;;;;;;;24.58;13.63;;;-1.30;99.90;;;;;;5055544;28;20051;-45
2021/12/27 04:27:29;;;;;;;22.88;13.30;;;-1.30;99.90;;;;;;5064910;28;20538;-46
2021/12/27 04:29:55;;;;;;;24.80;13.65;;;-1.40;99.90;;;;;;5060279;28;20041;-47
2021/12/27 04:32:21;;;;;;;22.40;12.70;;;-1.30;99.90;;;;;;5069745;28;20071;-45
2021/12/27 04:34:47;;;;;;;22.80;13.63;;;-1.30;99.90;;;;;;5052926;28;20029;-45
2021/12/27 04:37:13;;;;;;;25.90;13.50;;;-1.30;99.90;;;;;;5051508;28;20469;-45
2021/12/27 04:39:39;;;;;;;24.23;14.05;;;-1.30;99.90;;;;;;5051123;28;20036;-45
2021/12/27 04:42:07;;;;;;;26.85;13.88;;;-1.30;99.90;;;;;;5051316;28;20165;-45
2021/12/27 04:44:34;;;;;;;29.83;13.75;;;-1.30;99.90;;;;;;5056774;28;20045;-46
2021/12/27 04:47:01;;;;;;;21.92;12.52;;;-1.20;99.90;;;;;;5055509;28;20487;-45
2021/12/27 04:49:27;;;;;;;25.73;13.73;;;-1.20;99.90;;;;;;5061529;28;20052;-46
2021/12/27 04:51:54;;;;;;;24.88;13.40;;;-1.20;99.90;;;;;;5066625;28;20455;-46
2021/12/27 04:54:20;;;;;;;25.85;14.23;;;-1.20;99.90;;;;;;5051235;28;20417;-45
2021/12/27 04:56:47;;;;;;;29.05;14.52;;;-1.20;99.90;;;;;;5066061;28;20036;-46
2021/12/27 04:59:13;;;;;;;24.90;13.68;;;-1.20;99.90;;;;;;5034350;28;20124;-45
2021/12/27 05:01:39;;;;;;;22.30;13.13;;;-1.20;99.90;;;;;;5052466;28;20041;-45
2021/12/27 05:04:05;;;;;;;25.80;14.35;;;-1.10;99.90;;;;;;5055778;28;20047;-47
2021/12/27 05:06:31;;;;;;;24.17;14.55;;;-1.10;99.90;;;;;;5058070;28;20049;-47
2021/12/27 05:08:57;;;;;;;24.08;14.20;;;-1.20;99.90;;;;;;5052663;28;20132;-45
2021/12/27 05:11:23;;;;;;;25.75;13.30;;;-1.10;99.90;;;;;;5036456;28;20055;-45
2021/12/27 05:13:49;;;;;;;24.33;14.23;;;-1.10;99.90;;;;;;5067640;28;20118;-46
2021/12/27 05:16:15;;;;;;;27.52;14.23;;;-1.10;99.90;;;;;;5066723;28;20044;-45
2021/12/27 05:18:41;;;;;;;25.55;14.38;;;-1.10;99.90;;;;;;5052203;28;20080;-45
2021/12/27 05:21:07;;;;;;;23.50;14.00;;;-1.10;99.90;;;;;;5036536;28;20510;-45
2021/12/27 05:23:34;;;;;;;23.02;13.50;;;-1.00;99.90;;;;;;5053802;28;20504;-46
2021/12/27 05:26:00;;;;;;;26.60;14.07;;;-1.10;99.90;;;;;;5069038;28;20047;-45
2021/12/27 05:28:26;;;;;;;25.85;14.25;;;-1.00;99.90;;;;;;5043414;28;20508;-45
2021/12/27 05:30:55;;;;;;;25.05;14.05;;;-1.00;99.90;;;;;;5054853;28;20045;-45
2021/12/27 05:33:21;;;;;;;28.77;14.02;;;-1.00;99.90;;;;;;5067186;28;20150;-46
2021/12/27 05:35:47;;;;;;;24.77;13.55;;;-1.00;99.90;;;;;;5051627;28;20415;-45
2021/12/27 05:38:14;;;;;;;24.55;14.15;;;-1.00;99.90;;;;;;5061359;28;20044;-46
2021/12/27 05:40:40;;;;;;;27.67;15.05;;;-1.00;99.90;;;;;;5083914;28;20052;-46
2021/12/27 05:43:07;;;;;;;27.27;14.77;;;-1.00;99.90;;;;;;5060274;28;20045;-46
2021/12/27 05:45:37;;;;;;;26.52;15.00;;;-1.00;99.90;;;;;;5052735;28;20040;-45
2021/12/27 05:48:05;;;;;;;29.23;14.77;;;-1.00;99.90;;;;;;5057821;28;20048;-46
2021/12/27 05:50:31;;;;;;;24.70;15.38;;;-0.90;99.90;;;;;;5085177;28;20116;-45
2021/12/27 05:53:16;;;;;;;26.92;14.77;;;-1.00;99.90;;;;;;5070130;28;20101;-48
2021/12/27 05:55:44;;;;;;;26.67;15.13;;;-0.90;99.90;;;;;;5058308;28;20145;-46
2021/12/27 05:58:11;;;;;;;27.50;14.75;;;-0.90;99.90;;;;;;5055570;28;20049;-46
2021/12/27 06:00:38;;;;;;;29.53;15.10;;;-0.90;99.90;;;;;;5049220;28;20128;-46
2021/12/27 06:03:04;;;;;;;26.98;15.80;;;-0.90;99.90;;;;;;5050350;28;20072;-46
2021/12/27 06:05:30;;;;;;;27.90;15.68;;;-0.90;99.90;;;;;;5083751;28;20053;-46
2021/12/27 06:07:57;;;;;;;28.35;15.77;;;-1.00;99.90;;;;;;5033131;28;20058;-46
2021/12/27 06:10:23;;;;;;;30.20;15.90;;;-1.00;99.90;;;;;;5057030;28;20045;-46
2021/12/27 06:12:49;;;;;;;28.83;15.65;;;-0.90;99.90;;;;;;5059415;28;20040;-46
2021/12/27 06:15:15;;;;;;;30.50;17.35;;;-0.90;99.90;;;;;;5034590;28;20227;-46
2021/12/27 06:17:45;;;;;;;26.73;16.45;;;-0.90;99.90;;;;;;5055015;28;20049;-46
2021/12/27 06:20:16;;;;;;;29.55;16.45;;;-0.90;99.90;;;;;;5049460;28;20051;-47
2021/12/27 06:22:49;;;;;;;30.80;17.25;;;-0.90;99.90;;;;;;5049628;28;20100;-45
2021/12/27 06:25:16;;;;;;;31.65;17.30;;;-0.90;99.90;;;;;;5055234;28;20124;-46
2021/12/27 06:27:43;;;;;;;32.00;17.13;;;-0.90;99.90;;;;;;5032603;28;20049;-46
2021/12/27 06:30:10;;;;;;;32.80;17.55;;;-0.90;99.90;;;;;;5070604;28;20051;-45
2021/12/27 06:32:36;;;;;;;34.85;18.38;;;-0.90;99.90;;;;;;5060125;28;20046;-45
2021/12/27 06:35:04;;;;;;;33.25;16.98;;;-0.90;99.90;;;;;;5060252;28;20033;-45
2021/12/27 06:37:30;;;;;;;32.13;16.95;;;-0.90;99.90;;;;;;5035695;28;20078;-47
2021/12/27 06:39:57;;;;;;;38.10;18.55;;;-0.90;99.90;;;;;;5059071;28;20047;-45
2021/12/27 06:42:23;;;;;;;28.90;17.33;;;-0.90;99.90;;;;;;5065718;28;20067;-45
2021/12/27 06:44:49;;;;;;;39.25;17.75;;;-0.90;99.90;;;;;;5058865;28;20048;-46
2021/12/27 06:47:14;;;;;;;31.63;18.27;;;-0.90;99.90;;;;;;5054787;28;20036;-45
2021/12/27 06:49:44;;;;;;;31.70;17.52;;;-0.90;99.90;;;;;;5038372;28;20494;-45
2021/12/27 06:52:11;;;;;;;34.13;17.63;;;-0.90;99.90;;;;;;5051798;28;20504;-45
2021/12/27 06:54:38;;;;;;;31.80;18.83;;;-0.80;99.90;;;;;;5060690;28;20048;-44
2021/12/27 06:57:06;;;;;;;34.50;18.52;;;-0.80;99.90;;;;;;5032888;28;20057;-44
2021/12/27 06:59:32;;;;;;;34.45;18.27;;;-0.80;99.90;;;;;;5050936;28;20115;-44
2021/12/27 07:01:58;;;;;;;32.22;17.95;;;-0.80;99.90;;;;;;5064821;28;20124;-45
2021/12/27 07:04:24;;;;;;;38.75;19.15;;;-0.80;99.90;;;;;;5048500;28;20041;-46
2021/12/27 07:06:50;;;;;;;35.00;18.58;;;-0.80;99.90;;;;;;5063384;28;20438;-45
2021/12/27 07:09:16;;;;;;;34.65;17.80;;;-0.80;99.90;;;;;;5018676;28;20048;-46
2021/12/27 07:11:42;;;;;;;35.47;19.30;;;-0.80;99.90;;;;;;5055968;28;20124;-46
2021/12/27 07:14:08;;;;;;;32.63;18.33;;;-0.80;99.90;;;;;;5048586;28;20124;-45
2021/12/27 07:16:34;;;;;;;33.58;18.38;;;-0.80;99.90;;;;;;5049798;28;20132;-45
2021/12/27 07:19:00;;;;;;;36.47;18.23;;;-0.80;99.90;;;;;;5065283;28;20136;-46
2021/12/27 07:21:26;;;;;;;33.90;18.63;;;-0.80;99.90;;;;;;5049381;28;20064;-45
2021/12/27 07:23:52;;;;;;;37.22;19.80;;;-0.80;99.90;;;;;;5048754;28;20063;-45
2021/12/27 07:26:18;;;;;;;40.60;18.10;;;-0.80;99.90;;;;;;5080621;28;20072;-45
2021/12/27 07:28:44;;;;;;;38.30;18.55;;;-0.70;99.90;;;;;;5081798;28;20041;-46
2021/12/27 07:31:11;;;;;;;34.95;17.30;;;-0.80;99.90;;;;;;5064872;28;20044;-45
2021/12/27 07:33:37;;;;;;;39.85;19.90;;;-0.70;99.90;;;;;;5054282;28;20624;-45
2021/12/27 07:36:06;;;;;;;37.00;18.17;;;-0.70;99.90;;;;;;5062790;28;20052;-46
2021/12/27 07:38:32;;;;;;;40.22;19.27;;;-0.70;99.90;;;;;;5067881;28;20040;-45
2021/12/27 07:40:58;;;;;;;38.40;18.98;;;-0.70;99.90;;;;;;5057210;28;20041;-45
2021/12/27 07:43:24;;;;;;;38.05;19.15;;;-0.70;99.90;;;;;;5068692;28;20044;-45
2021/12/27 07:45:50;;;;;;;35.95;18.25;;;-0.70;99.90;;;;;;5060463;28;20121;-45
2021/12/27 07:48:16;;;;;;;40.30;19.88;;;-0.70;99.90;;;;;;5067993;28;20505;-45
2021/12/27 07:50:43;;;;;;;40.00;18.67;;;-0.70;99.90;;;;;;5067342;28;20106;-45
2021/12/27 07:53:10;;;;;;;41.78;19.88;;;-0.70;99.90;;;;;;5074536;28;20386;-45
2021/12/27 07:55:36;;;;;;;41.80;20.45;;;-0.70;99.90;;;;;;5067330;28;20053;-45
2021/12/27 07:58:07;;;;;;;45.53;19.42;;;-0.70;99.90;;;;;;5066834;28;20040;-45
2021/12/27 08:00:33;;;;;;;46.40;21.48;;;-0.60;99.90;;;;;;5064868;28;20436;-46
2021/12/27 08:02:59;;;;;;;45.78;21.10;;;-0.60;99.90;;;;;;5067320;28;20040;-45
2021/12/27 08:05:25;;;;;;;45.90;19.85;;;-0.60;99.90;;;;;;5066304;28;20055;-46
2021/12/27 08:07:51;;;;;;;39.28;19.90;;;-0.70;99.90;;;;;;5063996;28;20045;-45
2021/12/27 08:10:17;;;;;;;51.22;21.80;;;-0.60;99.90;;;;;;5064327;28;20033;-46
2021/12/27 08:12:44;;;;;;;43.13;21.20;;;-0.60;99.90;;;;;;5061984;28;20037;-46
2021/12/27 08:15:12;;;;;;;39.80;20.25;;;-0.60;99.90;;;;;;5063161;28;20028;-45
2021/12/27 08:17:38;;;;;;;44.80;20.45;;;-0.60;99.90;;;;;;5066129;28;20029;-47
2021/12/27 08:20:07;;;;;;;36.08;19.23;;;-0.60;99.90;;;;;;5064687;28;20059;-46
2021/12/27 08:22:33;;;;;;;43.08;20.75;;;-0.60;99.90;;;;;;5063426;28;20229;-46
2021/12/27 08:24:59;;;;;;;40.72;19.75;;;-0.60;99.90;;;;;;5059377;28;20041;-44
2021/12/27 08:27:27;;;;;;;44.97;20.95;;;-0.60;99.90;;;;;;5044097;28;20052;-45
2021/12/27 08:29:53;;;;;;;40.88;19.48;;;-0.50;99.90;;;;;;5056225;28;20048;-45
2021/12/27 08:32:19;;;;;;;48.80;20.85;;;-0.50;99.90;;;;;;5068255;28;20048;-46
2021/12/27 08:34:46;;;;;;;40.25;19.73;;;-0.50;99.90;;;;;;5058746;28;20063;-46
2021/12/27 08:37:13;;;;;;;40.90;19.45;;;-0.50;99.90;;;;;;5066096;28;20037;-48
2021/12/27 08:39:40;;;;;;;45.45;20.63;;;-0.50;99.90;;;;;;5042698;28;20041;-46
2021/12/27 08:42:10;;;;;;;40.58;20.85;;;-0.40;99.90;;;;;;5049119;28;20041;-46
2021/12/27 08:44:37;;;;;;;47.75;20.13;;;-0.40;99.90;;;;;;5059189;28;20071;-46
2021/12/27 08:47:04;;;;;;;54.50;21.75;;;-0.40;99.90;;;;;;5082750;28;20076;-46
2021/12/27 08:49:30;;;;;;;45.30;21.27;;;-0.40;99.90;;;;;;5093081;28;20053;-49
2021/12/27 08:51:57;;;;;;;43.88;20.55;;;-0.40;99.90;;;;;;5041062;28;20067;-46
2021/12/27 08:54:23;;;;;;;46.03;20.67;;;-0.40;99.90;;;;;;5060752;28;20048;-45
2021/12/27 08:56:49;;;;;;;43.85;22.00;;;-0.40;99.90;;;;;;5091777;28;20044;-46
2021/12/27 08:59:15;;;;;;;49.85;21.88;;;-0.40;99.90;;;;;;5047473;28;20043;-45
2021/12/27 09:01:41;;;;;;;38.90;19.15;;;-0.40;99.90;;;;;;5055026;28;20095;-45
2021/12/27 09:04:07;;;;;;;43.08;20.08;;;-0.40;99.90;;;;;;5065397;28;20044;-48
2021/12/27 09:06:34;;;;;;;47.85;21.25;;;-0.30;99.90;;;;;;5060470;28;20099;-47
2021/12/27 09:09:02;;;;;;;45.03;21.42;;;-0.30;99.90;;;;;;5056392;28;20036;-45
2021/12/27 09:11:28;;;;;;;41.65;20.48;;;-0.30;99.90;;;;;;5057268;28;20140;-47
2021/12/27 09:13:54;;;;;;;44.30;20.70;;;-0.30;99.90;;;;;;5059188;28;20187;-49
2021/12/27 09:16:20;;;;;;;43.35;20.70;;;-0.20;99.90;;;;;;5036258;28;20066;-48
2021/12/27 09:18:47;;;;;;;40.20;19.60;;;-0.20;99.90;;;;;;5043333;28;20392;-46
2021/12/27 09:21:13;;;;;;;45.20;20.05;;;-0.20;99.90;;;;;;5051779;28;20408;-47
2021/12/27 09:23:40;;;;;;;40.50;19.10;;;-0.20;99.90;;;;;;5050781;28;20114;-47
2021/12/27 09:26:06;;;;;;;48.28;20.63;;;-0.10;99.90;;;;;;5051872;28;20495;-45
2021/12/27 09:28:32;;;;;;;51.15;21.20;;;-0.10;99.90;;;;;;5052687;28;20379;-48
2021/12/27 09:30:59;;;;;;;51.50;20.35;;;-0.10;99.90;;;;;;5054244;28;20495;-44
2021/12/27 09:33:26;;;;;;;45.90;20.37;;;-0.10;99.90;;;;;;5061272;28;20135;-45
2021/12/27 09:35:52;;;;;;;45.25;20.30;;;-0.10;99.90;;;;;;5050923;28;20057;-46
2021/12/27 09:38:18;;;;;;;44.72;20.73;;;0.00;99.90;;;;;;5069802;28;20044;-45
2021/12/27 09:40:45;;;;;;;48.50;20.00;;;0.00;99.90;;;;;;5049039;28;20045;-46
2021/12/27 09:43:11;;;;;;;46.75;20.73;;;0.00;99.90;;;;;;5050730;28;20052;-46
2021/12/27 09:45:37;;;;;;;48.25;21.10;;;0.00;99.90;;;;;;5056091;28;20056;-48
2021/12/27 09:48:04;;;;;;;41.75;19.48;;;0.00;99.90;;;;;;5058655;28;20040;-46
2021/12/27 09:50:35;;;;;;;42.80;19.83;;;0.00;99.90;;;;;;5051187;28;20772;-46
2021/12/27 09:53:02;;;;;;;48.55;20.10;;;0.00;99.90;;;;;;5057884;28;20045;-45
2021/12/27 09:55:28;;;;;;;51.03;20.40;;;0.00;99.90;;;;;;5052214;28;20574;-46
2021/12/27 09:57:55;;;;;;;52.13;21.38;;;0.00;99.90;;;;;;5051457;28;20422;-44
2021/12/27 10:00:21;;;;;;;48.88;20.30;;;0.10;99.90;;;;;;5070048;28;20896;-45
2021/12/27 10:02:54;;;;;;;47.42;22.13;;;0.10;99.90;;;;;;5040977;28;20502;-48
2021/12/27 10:05:22;;;;;;;53.42;21.23;;;0.10;99.90;;;;;;5033561;28;20083;-48
2021/12/27 10:07:48;;;;;;;53.67;21.50;;;0.10;99.90;;;;;;5069787;28;20111;-45
2021/12/27 10:10:14;;;;;;;51.92;20.67;;;0.10;99.90;;;;;;5058747;28;20044;-45
2021/12/27 10:12:40;;;;;;;50.35;21.75;;;0.10;99.90;;;;;;5056171;28;20048;-49
2021/12/27 10:15:09;;;;;;;54.83;22.63;;;0.10;99.90;;;;;;5065120;28;20088;-48
2021/12/27 10:17:37;;;;;;;55.83;22.73;;;0.10;99.90;;;;;;5057329;28;20033;-47
2021/12/27 10:20:18;;;;;;;56.28;23.52;;;0.10;99.90;;;;;;5066322;28;20047;-46
2021/12/27 10:22:50;;;;;;;51.20;23.17;;;0.10;99.90;;;;;;5060167;28;20060;-49
2021/12/27 10:25:23;;;;;;;49.55;23.02;;;0.10;99.90;;;;;;5069981;28;20040;-46
2021/12/27 10:27:53;;;;;;;57.85;23.73;;;0.10;99.90;;;;;;5070338;28;20037;-46
2021/12/27 10:30:22;;;;;;;58.92;23.15;;;0.10;99.90;;;;;;5067300;28;20074;-45
2021/12/27 10:33:07;;;;;;;55.45;23.02;;;0.10;99.90;;;;;;5063880;28;20036;-45
2021/12/27 10:35:42;;;;;;;54.38;22.85;;;0.10;99.90;;;;;;5055973;28;20047;-45
2021/12/27 10:38:24;;;;;;;56.47;22.80;;;0.20;99.90;;;;;;5064284;28;20158;-45
2021/12/27 10:40:53;;;;;;;56.22;22.17;;;0.20;99.90;;;;;;5067187;28;20048;-45
2021/12/27 10:47:38;;;;;;;68.15;24.17;;;0.20;99.90;;;;;;5064011;28;20132;-46
2021/12/27 10:50:08;;;;;;;55.38;23.52;;;0.30;99.90;;;;;;4993902;28;20043;-46
2021/12/27 10:52:52;;;;;;;66.00;23.95;;;0.30;99.90;;;;;;5051825;28;20045;-45
2021/12/27 10:55:39;;;;;;;65.70;23.92;;;0.30;99.90;;;;;;5049886;28;20561;-46
2021/12/27 10:58:38;;;;;;;61.05;24.50;;;0.30;99.90;;;;;;5068282;28;20040;-46
2021/12/27 11:09:34;;;;;;;64.10;25.38;;;0.40;99.90;;;;;;5082778;28;20068;-48
2021/12/27 11:12:59;;;;;;;75.18;25.67;;;0.40;99.90;;;;;;5068557;28;20055;-46
2021/12/27 11:16:58;;;;;;;86.90;25.60;;;0.40;99.90;;;;;;5069181;28;20039;-47
2021/12/27 11:27:58;;;;;;;79.20;24.67;;;0.60;99.90;;;;;;5084088;28;20298;-46
2021/12/27 12:00:55;;;;;;;142.85;82.82;;;0.70;99.90;;;;;;5082507;28;20040;-46
2021/12/27 13:09:04;;;;;;;167.07;84.00;;;1.00;99.90;;;;;;5069761;28;20477;-45
2021/12/27 13:11:30;;;;;;;224.57;86.18;;;1.00;99.90;;;;;;5048927;28;20075;-45
2021/12/27 13:13:58;;;;;;;191.38;86.15;;;1.00;99.90;;;;;;5060217;28;20381;-46
2021/12/27 13:16:28;;;;;;;193.18;81.65;;;1.00;99.90;;;;;;5061746;28;20028;-44
2021/12/27 13:18:54;;;;;;;194.45;83.50;;;1.00;99.90;;;;;;5064985;28;20040;-45
2021/12/27 13:21:20;;;;;;;219.30;83.90;;;1.00;99.90;;;;;;5082000;28;20047;-45
2021/12/27 13:23:46;;;;;;;178.02;86.18;;;1.00;99.90;;;;;;5074903;28;20047;-47
2021/12/27 13:26:16;;;;;;;195.68;84.13;;;1.00;99.90;;;;;;5045845;28;20066;-46
2021/12/27 13:28:45;;;;;;;172.57;82.53;;;1.00;99.90;;;;;;5025665;28;20040;-46
2021/12/27 13:31:19;;;;;;;184.70;82.80;;;1.00;99.90;;;;;;5080880;28;20120;-48
2021/12/27 13:33:53;;;;;;;160.70;82.60;;;1.00;99.90;;;;;;5060571;28;20041;-45
2021/12/27 13:36:39;;;;;;;222.88;88.70;;;1.10;99.90;;;;;;5071063;28;20482;-45
2021/12/27 13:39:15;;;;;;;205.85;84.47;;;1.00;99.90;;;;;;5054184;28;20115;-45
2021/12/27 13:41:50;;;;;;;181.55;81.25;;;1.10;99.90;;;;;;5070165;28;20055;-47
2021/12/27 13:44:32;;;;;;;185.05;84.47;;;1.10;99.90;;;;;;5069946;28;20051;-45
2021/12/27 13:47:07;;;;;;;232.43;87.10;;;1.10;99.90;;;;;;5089669;28;20147;-47
2021/12/27 13:49:41;;;;;;;247.02;87.88;;;1.10;99.90;;;;;;5091324;28;20078;-45
2021/12/27 13:52:18;;;;;;;214.35;84.43;;;1.10;99.90;;;;;;5090701;28;20498;-49
2021/12/27 13:54:51;;;;;;;199.20;84.45;;;1.10;99.90;;;;;;5088494;28;20093;-45
2021/12/27 13:57:18;;;;;;;223.73;86.18;;;1.10;99.90;;;;;;5071707;28;20039;-47
2021/12/27 13:59:48;;;;;;;182.13;82.97;;;1.10;99.90;;;;;;5052466;28;20085;-47
2021/12/27 14:02:15;;;;;;;214.27;83.30;;;1.10;99.90;;;;;;5054421;28;20072;-47
2021/12/27 14:04:42;;;;;;;203.35;83.90;;;1.10;99.90;;;;;;5089335;28;20039;-48
2021/12/27 14:07:09;;;;;;;287.25;89.07;;;1.10;99.90;;;;;;5089416;28;20075;-46
2021/12/27 14:09:40;;;;;;;244.68;87.70;;;1.10;99.90;;;;;;5069489;28;20667;-46
2021/12/27 14:12:18;;;;;;;192.30;84.68;;;1.10;99.90;;;;;;5041480;28;20096;-45
2021/12/27 14:14:46;;;;;;;237.88;86.28;;;1.10;99.90;;;;;;5060238;28;20478;-45
2021/12/27 14:17:16;;;;;;;196.18;85.43;;;1.10;99.90;;;;;;5054600;28;20048;-45
2021/12/27 14:20:04;;;;;;;180.82;84.03;;;1.10;99.90;;;;;;5047541;28;20040;-47
2021/12/27 14:22:45;;;;;;;227.63;84.65;;;1.10;99.90;;;;;;5056166;28;20056;-47
2021/12/27 14:25:17;;;;;;;207.32;84.45;;;1.10;99.90;;;;;;5063925;28;20039;-46
2021/12/27 14:27:46;;;;;;;253.23;85.22;;;1.10;99.90;;;;;;5072167;28;20137;-49
2021/12/27 14:30:12;;;;;;;224.25;83.75;;;1.10;99.90;;;;;;5069883;28;20044;-46
2021/12/27 14:32:44;;;;;;;192.85;81.63;;;1.10;99.90;;;;;;5070210;28;20097;-45
2021/12/27 14:35:38;;;;;;;192.75;84.10;;;1.10;99.90;;;;;;5065250;28;20098;-46
2021/12/27 14:38:22;;;;;;;163.70;80.75;;;1.20;99.90;;;;;;5070473;28;20049;-45